createdAt,value
2017-10-16T21:12:05.106Z,15.88
2017-10-16T21:14:34.044Z,15.76
2017-10-16T21:17:01.737Z,15.72
2017-10-16T21:19:30.752Z,15.52
2017-10-16T21:21:58.336Z,15.31
2017-10-16T21:24:26.709Z,15.21
2017-10-16T21:26:54.691Z,15.32
2017-10-16T21:29:22.428Z,15.42
2017-10-16T21:31:50.086Z,15.30
2017-10-16T21:34:17.743Z,15.16
2017-10-16T21:36:45.457Z,15.38
2017-10-16T21:39:13.096Z,15.19
2017-10-16T21:41:41.649Z,15.23
2017-10-16T21:44:10.179Z,15.22
2017-10-16T21:46:37.778Z,15.11
2017-10-16T21:49:06.049Z,15.33
2017-10-16T21:51:33.767Z,15.42
2017-10-16T21:54:01.762Z,15.36
2017-10-16T21:56:34.105Z,15.33
2017-10-16T21:59:02.836Z,15.22
2017-10-16T22:01:30.545Z,15.15
2017-10-16T22:03:58.139Z,15.35
2017-10-16T22:06:25.747Z,15.27
2017-10-16T22:08:53.467Z,15.06
2017-10-16T22:11:21.102Z,15.03
2017-10-16T22:13:49.054Z,15.21
2017-10-16T22:16:18.014Z,15.18
2017-10-16T22:18:46.368Z,14.63
2017-10-16T22:21:15.145Z,15.08
2017-10-16T22:23:44.676Z,15.11
2017-10-16T22:26:12.362Z,14.89
2017-10-16T22:28:40.169Z,14.95
2017-10-16T22:31:08.853Z,15.00
2017-10-16T22:33:36.438Z,14.91
2017-10-16T22:36:04.237Z,14.95
2017-10-16T22:38:35.051Z,14.93
2017-10-16T22:41:02.621Z,14.80
2017-10-16T22:43:31.654Z,14.58
2017-10-16T22:46:00.054Z,14.38
2017-10-16T22:48:35.722Z,14.38
2017-10-16T22:51:09.293Z,14.41
2017-10-16T22:53:37.189Z,14.33
2017-10-16T22:56:05.008Z,14.52
2017-10-16T22:58:32.726Z,14.22
2017-10-16T23:01:00.365Z,14.35
2017-10-16T23:03:27.942Z,14.33
2017-10-16T23:05:55.714Z,14.22
2017-10-16T23:08:23.391Z,14.08
2017-10-16T23:10:51.034Z,14.12
2017-10-16T23:13:18.678Z,14.24
2017-10-16T23:15:46.329Z,14.22
2017-10-16T23:18:14.115Z,14.30
2017-10-16T23:20:41.695Z,14.38
2017-10-16T23:23:09.243Z,14.40
2017-10-16T23:25:36.839Z,14.39
2017-10-16T23:28:04.541Z,14.23
2017-10-16T23:30:32.092Z,13.97
2017-10-16T23:32:59.713Z,13.93
2017-10-16T23:35:27.359Z,14.02
2017-10-16T23:37:54.981Z,14.04
2017-10-16T23:40:23.522Z,14.02
2017-10-16T23:42:51.925Z,14.02
2017-10-16T23:45:19.746Z,14.10
2017-10-16T23:47:48.531Z,14.13
2017-10-16T23:50:16.088Z,14.03
2017-10-16T23:52:45.105Z,13.98
2017-10-16T23:55:13.984Z,13.79
2017-10-16T23:57:43.439Z,13.58
